sensor_id;sensor_type;location;lat;lon;timestamp;pressure;altitude;pressure_sealevel;temperature;humidity
36748;BME280;22716;51.556;5.080;2024-01-25T00:00:13;102126.97;;;8.65;100.00
36748;BME280;22716;51.556;5.080;2024-01-25T00:02:44;102122.59;;;8.64;100.00
36748;BME280;22716;51.556;5.080;2024-01-25T00:05:13;102123.41;;;8.61;100.00
36748;BME280;22716;51.556;5.080;2024-01-25T00:07:48;102122.53;;;8.61;100.00
36748;BME280;22716;51.556;5.080;2024-01-25T00:10:17;102124.19;;;8.56;100.00
36748;BME280;22716;51.556;5.080;2024-01-25T00:12:46;102126.75;;;8.53;100.00
36748;BME280;22716;51.556;5.080;2024-01-25T00:15:14;102137.19;;;8.51;100.00
36748;BME280;22716;51.556;5.080;2024-01-25T00:17:46;102124.06;;;8.48;100.00
36748;BME280;22716;51.556;5.080;2024-01-25T00:20:15;102117.13;;;8.52;100.00
36748;BME280;22716;51.556;5.080;2024-01-25T00:22:43;102110.97;;;8.47;100.00
36748;BME280;22716;51.556;5.080;2024-01-25T00:25:12;102129.25;;;8.47;100.00
36748;BME280;22716;51.556;5.080;2024-01-25T00:27:40;102126.56;;;8.43;100.00
36748;BME280;22716;51.556;5.080;2024-01-25T00:30:11;102110.72;;;8.34;100.00
36748;BME280;22716;51.556;5.080;2024-01-25T00:32:40;102105.50;;;8.33;100.00
36748;BME280;22716;51.556;5.080;2024-01-25T00:35:13;102113.34;;;8.34;100.00
36748;BME280;22716;51.556;5.080;2024-01-25T00:37:42;102117.56;;;8.28;100.00
36748;BME280;22716;51.556;5.080;2024-01-25T00:40:12;102114.78;;;8.20;100.00
36748;BME280;22716;51.556;5.080;2024-01-25T00:42:42;102119.03;;;8.15;100.00
36748;BME280;22716;51.556;5.080;2024-01-25T00:45:14;102116.38;;;8.14;100.00
36748;BME280;22716;51.556;5.080;2024-01-25T00:47:44;102106.78;;;8.11;100.00
36748;BME280;22716;51.556;5.080;2024-01-25T00:50:16;102099.75;;;8.07;100.00
36748;BME280;22716;51.556;5.080;2024-01-25T00:52:47;102114.53;;;8.07;100.00
36748;BME280;22716;51.556;5.080;2024-01-25T00:55:17;102113.59;;;8.05;100.00
36748;BME280;22716;51.556;5.080;2024-01-25T00:57:46;102124.03;;;8.03;100.00
36748;BME280;22716;51.556;5.080;2024-01-25T01:00:16;102125.72;;;8.01;100.00
36748;BME280;22716;51.556;5.080;2024-01-25T01:02:45;102123.88;;;7.97;100.00
36748;BME280;22716;51.556;5.080;2024-01-25T01:05:17;102123.91;;;7.99;100.00
36748;BME280;22716;51.556;5.080;2024-01-25T01:07:47;102118.56;;;7.93;100.00
36748;BME280;22716;51.556;5.080;2024-01-25T01:10:15;102119.38;;;7.90;100.00
36748;BME280;22716;51.556;5.080;2024-01-25T01:12:44;102126.38;;;7.93;100.00
36748;BME280;22716;51.556;5.080;2024-01-25T01:15:13;102132.44;;;7.90;100.00
36748;BME280;22716;51.556;5.080;2024-01-25T01:17:41;102117.59;;;7.86;100.00
36748;BME280;22716;51.556;5.080;2024-01-25T01:20:10;102123.63;;;7.83;100.00
36748;BME280;22716;51.556;5.080;2024-01-25T01:22:42;102130.44;;;7.77;100.00
36748;BME280;22716;51.556;5.080;2024-01-25T01:25:10;102128.66;;;7.76;100.00
36748;BME280;22716;51.556;5.080;2024-01-25T01:27:39;102133.78;;;7.71;100.00
36748;BME280;22716;51.556;5.080;2024-01-25T01:30:08;102141.56;;;7.68;100.00
36748;BME280;22716;51.556;5.080;2024-01-25T01:32:37;102142.38;;;7.66;100.00
36748;BME280;22716;51.556;5.080;2024-01-25T01:35:06;102153.56;;;7.62;100.00
36748;BME280;22716;51.556;5.080;2024-01-25T01:37:35;102153.53;;;7.60;100.00
36748;BME280;22716;51.556;5.080;2024-01-25T01:40:07;102149.13;;;7.58;100.00
36748;BME280;22716;51.556;5.080;2024-01-25T01:42:36;102133.34;;;7.52;100.00
36748;BME280;22716;51.556;5.080;2024-01-25T01:45:06;102137.66;;;7.50;100.00
36748;BME280;22716;51.556;5.080;2024-01-25T01:47:35;102144.59;;;7.49;100.00
36748;BME280;22716;51.556;5.080;2024-01-25T01:50:04;102141.94;;;7.48;100.00
36748;BME280;22716;51.556;5.080;2024-01-25T01:52:33;102136.59;;;7.42;100.00
36748;BME280;22716;51.556;5.080;2024-01-25T01:55:06;102149.59;;;7.40;100.00
36748;BME280;22716;51.556;5.080;2024-01-25T01:57:35;102152.16;;;7.39;100.00
36748;BME280;22716;51.556;5.080;2024-01-25T02:00:07;102157.25;;;7.34;100.00
36748;BME280;22716;51.556;5.080;2024-01-25T02:02:36;102157.41;;;7.40;100.00
36748;BME280;22716;51.556;5.080;2024-01-25T02:05:05;102154.66;;;7.34;100.00
36748;BME280;22716;51.556;5.080;2024-01-25T02:07:35;102154.41;;;7.23;100.00
36748;BME280;22716;51.556;5.080;2024-01-25T02:10:09;102175.44;;;7.31;100.00
36748;BME280;22716;51.556;5.080;2024-01-25T02:12:38;102184.06;;;7.27;100.00
36748;BME280;22716;51.556;5.080;2024-01-25T02:15:07;102187.50;;;7.26;100.00
36748;BME280;22716;51.556;5.080;2024-01-25T02:17:36;102177.66;;;7.14;100.00
36748;BME280;22716;51.556;5.080;2024-01-25T02:20:06;102195.22;;;7.23;100.00
36748;BME280;22716;51.556;5.080;2024-01-25T02:22:38;102191.72;;;7.21;100.00
36748;BME280;22716;51.556;5.080;2024-01-25T02:25:07;102183.84;;;7.19;100.00
36748;BME280;22716;51.556;5.080;2024-01-25T02:27:36;102185.53;;;7.17;100.00
36748;BME280;22716;51.556;5.080;2024-01-25T02:30:06;102192.22;;;7.06;100.00
36748;BME280;22716;51.556;5.080;2024-01-25T02:32:35;102198.41;;;7.11;100.00
36748;BME280;22716;51.556;5.080;2024-01-25T02:35:05;102192.22;;;7.06;100.00
36748;BME280;22716;51.556;5.080;2024-01-25T02:37:33;102198.25;;;7.05;100.00
36748;BME280;22716;51.556;5.080;2024-01-25T02:40:06;102185.94;;;6.98;100.00
36748;BME280;22716;51.556;5.080;2024-01-25T02:42:34;102201.75;;;7.04;100.00
36748;BME280;22716;51.556;5.080;2024-01-25T02:45:04;102200.78;;;7.02;100.00
36748;BME280;22716;51.556;5.080;2024-01-25T02:47:33;102191.97;;;6.97;100.00
36748;BME280;22716;51.556;5.080;2024-01-25T02:50:01;102199.81;;;6.99;100.00
36748;BME280;22716;51.556;5.080;2024-01-25T02:52:30;102195.34;;;6.93;100.00
36748;BME280;22716;51.556;5.080;2024-01-25T02:54:59;102208.38;;;6.93;100.00
36748;BME280;22716;51.556;5.080;2024-01-25T02:57:30;102200.47;;;6.90;100.00
36748;BME280;22716;51.556;5.080;2024-01-25T02:59:59;102202.16;;;6.87;100.00
36748;BME280;22716;51.556;5.080;2024-01-25T03:02:28;102194.09;;;6.78;100.00
36748;BME280;22716;51.556;5.080;2024-01-25T03:04:57;102206.38;;;6.83;100.00
36748;BME280;22716;51.556;5.080;2024-01-25T03:07:25;102212.47;;;6.84;100.00
36748;BME280;22716;51.556;5.080;2024-01-25T03:09:54;102205.41;;;6.80;100.00
36748;BME280;22716;51.556;5.080;2024-01-25T03:12:22;102196.69;;;6.78;100.00
36748;BME280;22716;51.556;5.080;2024-01-25T03:14:54;102190.50;;;6.74;100.00
36748;BME280;22716;51.556;5.080;2024-01-25T03:17:22;102188.56;;;6.67;100.00
36748;BME280;22716;51.556;5.080;2024-01-25T03:19:51;102190.22;;;6.63;100.00
36748;BME280;22716;51.556;5.080;2024-01-25T03:22:20;102190.22;;;6.63;100.00
36748;BME280;22716;51.556;5.080;2024-01-25T03:24:48;102184.88;;;6.59;100.00
36748;BME280;22716;51.556;5.080;2024-01-25T03:27:17;102179.59;;;6.56;100.00
36748;BME280;22716;51.556;5.080;2024-01-25T03:29:45;102182.94;;;6.52;100.00
36748;BME280;22716;51.556;5.080;2024-01-25T03:32:17;102187.38;;;6.54;100.00
36748;BME280;22716;51.556;5.080;2024-01-25T03:34:45;102189.22;;;6.58;100.00
36748;BME280;22716;51.556;5.080;2024-01-25T03:37:14;102190.91;;;6.56;100.00
36748;BME280;22716;51.556;5.080;2024-01-25T03:39:42;102192.53;;;6.53;100.00
36748;BME280;22716;51.556;5.080;2024-01-25T03:42:11;102153.50;;;6.22;100.00
36748;BME280;22716;51.556;5.080;2024-01-25T03:44:39;102194.88;;;6.44;100.00
36748;BME280;22716;51.556;5.080;2024-01-25T03:47:10;102192.34;;;6.45;100.00
36748;BME280;22716;51.556;5.080;2024-01-25T03:49:41;102195.78;;;6.44;100.00
36748;BME280;22716;51.556;5.080;2024-01-25T03:52:10;102199.25;;;6.45;100.00
36748;BME280;22716;51.556;5.080;2024-01-25T03:54:38;102199.19;;;6.43;100.00
36748;BME280;22716;51.556;5.080;2024-01-25T03:57:07;102202.66;;;6.42;100.00
36748;BME280;22716;51.556;5.080;2024-01-25T03:59:35;102200.88;;;6.41;100.00
36748;BME280;22716;51.556;5.080;2024-01-25T04:02:04;102201.78;;;6.42;100.00
36748;BME280;22716;51.556;5.080;2024-01-25T04:04:32;102208.69;;;6.41;100.00
36748;BME280;22716;51.556;5.080;2024-01-25T04:07:03;102205.97;;;6.37;100.00
36748;BME280;22716;51.556;5.080;2024-01-25T04:09:32;102194.69;;;6.36;100.00
36748;BME280;22716;51.556;5.080;2024-01-25T04:12:01;102202.50;;;6.36;100.00
36748;BME280;22716;51.556;5.080;2024-01-25T04:14:29;102194.63;;;6.35;100.00
36748;BME280;22716;51.556;5.080;2024-01-25T04:16:58;102193.72;;;6.34;100.00
36748;BME280;22716;51.556;5.080;2024-01-25T04:19:26;102184.00;;;6.27;100.00
36748;BME280;22716;51.556;5.080;2024-01-25T04:21:55;102190.13;;;6.29;100.00
36748;BME280;22716;51.556;5.080;2024-01-25T04:24:26;102186.53;;;6.24;100.00
36748;BME280;22716;51.556;5.080;2024-01-25T04:26:55;102203.13;;;6.28;100.00
36748;BME280;22716;51.556;5.080;2024-01-25T04:29:23;102180.25;;;6.17;100.00
36748;BME280;22716;51.556;5.080;2024-01-25T04:31:52;102194.34;;;6.26;100.00
36748;BME280;22716;51.556;5.080;2024-01-25T04:34:20;102193.34;;;6.20;100.00
36748;BME280;22716;51.556;5.080;2024-01-25T04:36:49;102211.56;;;6.20;100.00
36748;BME280;22716;51.556;5.080;2024-01-25T04:39:17;102213.09;;;6.14;100.00
36748;BME280;22716;51.556;5.080;2024-01-25T04:41:48;102207.91;;;6.14;100.00
36748;BME280;22716;51.556;5.080;2024-01-25T04:44:17;102199.16;;;6.10;100.00
36748;BME280;22716;51.556;5.080;2024-01-25T04:46:46;102183.38;;;6.06;100.00
36748;BME280;22716;51.556;5.080;2024-01-25T04:49:15;102188.47;;;6.01;100.00
36748;BME280;22716;51.556;5.080;2024-01-25T04:51:43;102202.50;;;6.06;100.00
36748;BME280;22716;51.556;5.080;2024-01-25T04:54:12;102205.22;;;6.11;100.00
36748;BME280;22716;51.556;5.080;2024-01-25T04:56:41;102206.88;;;6.07;100.00
36748;BME280;22716;51.556;5.080;2024-01-25T04:59:12;102187.69;;;6.04;100.00
36748;BME280;22716;51.556;5.080;2024-01-25T05:01:40;102196.22;;;6.00;100.00
36748;BME280;22716;51.556;5.080;2024-01-25T05:04:09;102204.09;;;6.01;100.00
36748;BME280;22716;51.556;5.080;2024-01-25T05:06:38;102193.63;;;6.00;100.00
36748;BME280;22716;51.556;5.080;2024-01-25T05:09:06;102196.13;;;5.97;100.00
36748;BME280;22716;51.556;5.080;2024-01-25T05:11:38;102191.84;;;5.99;100.00
36748;BME280;22716;51.556;5.080;2024-01-25T05:14:06;102198.72;;;5.97;100.00
36748;BME280;22716;51.556;5.080;2024-01-25T05:16:38;102205.66;;;5.96;100.00
36748;BME280;22716;51.556;5.080;2024-01-25T05:19:06;102194.31;;;5.94;100.00
36748;BME280;22716;51.556;5.080;2024-01-25T05:21:35;102189.94;;;5.93;100.00
36748;BME280;22716;51.556;5.080;2024-01-25T05:24:04;102196.75;;;5.88;100.00
36748;BME280;22716;51.556;5.080;2024-01-25T05:26:33;102203.72;;;5.89;100.00
36748;BME280;22716;51.556;5.080;2024-01-25T05:29:01;102193.91;;;5.82;100.00
36748;BME280;22716;51.556;5.080;2024-01-25T05:31:30;102184.03;;;5.71;100.00
36748;BME280;22716;51.556;5.080;2024-01-25T05:34:01;102197.19;;;5.75;100.00
36748;BME280;22716;51.556;5.080;2024-01-25T05:36:30;102205.84;;;5.76;100.00
36748;BME280;22716;51.556;5.080;2024-01-25T05:38:58;102213.72;;;5.77;100.00
36748;BME280;22716;51.556;5.080;2024-01-25T05:41:32;102217.94;;;5.74;100.00
36748;BME280;22716;51.556;5.080;2024-01-25T05:44:01;102209.94;;;5.68;100.00
36748;BME280;22716;51.556;5.080;2024-01-25T05:46:29;102186.22;;;5.57;100.00
36748;BME280;22716;51.556;5.080;2024-01-25T05:48:58;102200.19;;;5.60;100.00
36748;BME280;22716;51.556;5.080;2024-01-25T05:51:29;102205.97;;;5.52;100.00
36748;BME280;22716;51.556;5.080;2024-01-25T05:53:58;102214.53;;;5.48;100.00
36748;BME280;22716;51.556;5.080;2024-01-25T05:56:26;102210.59;;;5.60;100.00
36748;BME280;22716;51.556;5.080;2024-01-25T05:58:55;102211.66;;;5.67;100.00
36748;BME280;22716;51.556;5.080;2024-01-25T06:01:23;102201.06;;;5.61;100.00
36748;BME280;22716;51.556;5.080;2024-01-25T06:03:52;102193.13;;;5.56;100.00
36748;BME280;22716;51.556;5.080;2024-01-25T06:06:20;102200.97;;;5.58;100.00
36748;BME280;22716;51.556;5.080;2024-01-25T06:08:51;102204.41;;;5.57;100.00
36748;BME280;22716;51.556;5.080;2024-01-25T06:11:20;102208.63;;;5.53;100.00
36748;BME280;22716;51.556;5.080;2024-01-25T06:13:49;102205.22;;;5.56;100.00
36748;BME280;22716;51.556;5.080;2024-01-25T06:16:17;102202.53;;;5.53;100.00
36748;BME280;22716;51.556;5.080;2024-01-25T06:18:46;102212.16;;;5.55;100.00
36748;BME280;22716;51.556;5.080;2024-01-25T06:21:15;102216.47;;;5.55;100.00
36748;BME280;22716;51.556;5.080;2024-01-25T06:23:43;102214.63;;;5.51;100.00
36748;BME280;22716;51.556;5.080;2024-01-25T06:26:15;102218.78;;;5.46;100.00
36748;BME280;22716;51.556;5.080;2024-01-25T06:28:43;102224.00;;;5.46;100.00
36748;BME280;22716;51.556;5.080;2024-01-25T06:31:12;102215.22;;;5.42;100.00
36748;BME280;22716;51.556;5.080;2024-01-25T06:33:41;102210.84;;;5.41;100.00
36748;BME280;22716;51.556;5.080;2024-01-25T06:36:12;102223.25;;;5.50;100.00
36748;BME280;22716;51.556;5.080;2024-01-25T06:38:42;102214.31;;;5.42;100.00
36748;BME280;22716;51.556;5.080;2024-01-25T06:41:10;102221.19;;;5.40;100.00
36748;BME280;22716;51.556;5.080;2024-01-25T06:43:42;102214.22;;;5.39;100.00
36748;BME280;22716;51.556;5.080;2024-01-25T06:46:11;102218.59;;;5.40;100.00
36748;BME280;22716;51.556;5.080;2024-01-25T06:48:39;102217.63;;;5.38;100.00
36748;BME280;22716;51.556;5.080;2024-01-25T06:51:08;102210.69;;;5.37;100.00
36748;BME280;22716;51.556;5.080;2024-01-25T06:53:36;102210.91;;;5.43;100.00
36748;BME280;22716;51.556;5.080;2024-01-25T06:56:05;102210.94;;;5.44;100.00
36748;BME280;22716;51.556;5.080;2024-01-25T06:58:34;102216.09;;;5.43;100.00
36748;BME280;22716;51.556;5.080;2024-01-25T07:01:06;102226.44;;;5.41;100.00
36748;BME280;22716;51.556;5.080;2024-01-25T07:03:35;102236.00;;;5.42;100.00
36748;BME280;22716;51.556;5.080;2024-01-25T07:06:04;102229.84;;;5.40;100.00
36748;BME280;22716;51.556;5.080;2024-01-25T07:08:33;102228.03;;;5.38;100.00
36748;BME280;22716;51.556;5.080;2024-01-25T07:11:01;102221.84;;;5.34;100.00
36748;BME280;22716;51.556;5.080;2024-01-25T07:13:30;102227.84;;;5.32;100.00
36748;BME280;22716;51.556;5.080;2024-01-25T07:16:27;102219.91;;;5.27;100.00
36748;BME280;22716;51.556;5.080;2024-01-25T07:18:56;102226.78;;;5.25;100.00
36748;BME280;22716;51.556;5.080;2024-01-25T07:21:24;102233.81;;;5.29;100.00
36748;BME280;22716;51.556;5.080;2024-01-25T07:23:53;102234.78;;;5.31;100.00
36748;BME280;22716;51.556;5.080;2024-01-25T07:26:21;102243.44;;;5.32;100.00
36748;BME280;22716;51.556;5.080;2024-01-25T07:28:50;102243.31;;;5.29;100.00
36748;BME280;22716;51.556;5.080;2024-01-25T07:31:22;102242.47;;;5.28;100.00
36748;BME280;22716;51.556;5.080;2024-01-25T07:33:54;102239.69;;;5.24;100.00
36748;BME280;22716;51.556;5.080;2024-01-25T07:36:22;102243.31;;;5.29;100.00
36748;BME280;22716;51.556;5.080;2024-01-25T07:38:51;102239.09;;;5.31;100.00
36748;BME280;22716;51.556;5.080;2024-01-25T07:41:20;102239.09;;;5.31;100.00
36748;BME280;22716;51.556;5.080;2024-01-25T07:43:48;102245.22;;;5.33;100.00
36748;BME280;22716;51.556;5.080;2024-01-25T07:46:21;102248.78;;;5.36;100.00
36748;BME280;22716;51.556;5.080;2024-01-25T07:48:50;102247.09;;;5.37;100.00
36748;BME280;22716;51.556;5.080;2024-01-25T07:51:18;102241.03;;;5.38;100.00
36748;BME280;22716;51.556;5.080;2024-01-25T07:53:47;102226.19;;;5.34;100.00
36748;BME280;22716;51.556;5.080;2024-01-25T07:56:15;102223.69;;;5.37;100.00
36748;BME280;22716;51.556;5.080;2024-01-25T07:58:44;102225.44;;;5.38;100.00
36748;BME280;22716;51.556;5.080;2024-01-25T08:01:17;102227.81;;;5.30;100.00
36748;BME280;22716;51.556;5.080;2024-01-25T08:03:46;102251.53;;;5.41;100.00
36748;BME280;22716;51.556;5.080;2024-01-25T08:06:17;102250.72;;;5.42;100.00
36748;BME280;22716;51.556;5.080;2024-01-25T08:08:46;102250.91;;;5.48;100.00
36748;BME280;22716;51.556;5.080;2024-01-25T08:11:14;102245.75;;;5.49;100.00
36748;BME280;22716;51.556;5.080;2024-01-25T08:13:45;102230.22;;;5.51;100.00
36748;BME280;22716;51.556;5.080;2024-01-25T08:16:16;102216.44;;;5.53;100.00
36748;BME280;22716;51.556;5.080;2024-01-25T08:18:45;102214.81;;;5.57;100.00
36748;BME280;22716;51.556;5.080;2024-01-25T08:21:14;102213.09;;;5.57;100.00
36748;BME280;22716;51.556;5.080;2024-01-25T08:23:45;102211.50;;;5.62;100.00
36748;BME280;22716;51.556;5.080;2024-01-25T08:26:14;102216.81;;;5.65;100.00
36748;BME280;22716;51.556;5.080;2024-01-25T08:28:43;102228.94;;;5.65;100.00
36748;BME280;22716;51.556;5.080;2024-01-25T08:31:12;102238.41;;;5.63;100.00
36748;BME280;22716;51.556;5.080;2024-01-25T08:33:40;102252.31;;;5.63;100.00
36748;BME280;22716;51.556;5.080;2024-01-25T08:36:13;102241.00;;;5.63;100.00
36748;BME280;22716;51.556;5.080;2024-01-25T08:38:41;102242.84;;;5.67;100.00
36748;BME280;22716;51.556;5.080;2024-01-25T08:41:13;102226.28;;;5.63;100.00
36748;BME280;22716;51.556;5.080;2024-01-25T08:43:41;102228.13;;;5.68;100.00
36748;BME280;22716;51.556;5.080;2024-01-25T08:46:13;102235.34;;;5.76;100.00
36748;BME280;22716;51.556;5.080;2024-01-25T08:48:41;102244.91;;;5.77;100.00
36748;BME280;22716;51.556;5.080;2024-01-25T08:51:10;102242.41;;;5.80;100.00
36748;BME280;22716;51.556;5.080;2024-01-25T08:53:39;102228.63;;;5.83;100.00
36748;BME280;22716;51.556;5.080;2024-01-25T08:56:08;102209.31;;;5.75;100.00
36748;BME280;22716;51.556;5.080;2024-01-25T08:58:39;102233.16;;;5.88;100.00
36748;BME280;22716;51.556;5.080;2024-01-25T09:01:07;102231.47;;;5.90;100.00
36748;BME280;22716;51.556;5.080;2024-01-25T09:03:36;102240.16;;;5.91;100.00
36748;BME280;22716;51.556;5.080;2024-01-25T09:06:05;102242.06;;;5.96;100.00
36748;BME280;22716;51.556;5.080;2024-01-25T09:08:33;102238.63;;;5.97;100.00
36748;BME280;22716;51.556;5.080;2024-01-25T09:11:02;102242.31;;;6.04;100.00
36748;BME280;22716;51.556;5.080;2024-01-25T09:13:31;102243.38;;;6.10;100.00
36748;BME280;22716;51.556;5.080;2024-01-25T09:16:03;102242.69;;;6.16;100.00
36748;BME280;22716;51.556;5.080;2024-01-25T09:18:32;102229.78;;;6.20;100.00
36748;BME280;22716;51.556;5.080;2024-01-25T09:21:00;102232.41;;;6.20;100.00
36748;BME280;22716;51.556;5.080;2024-01-25T09:23:29;102238.56;;;6.24;100.00
36748;BME280;22716;51.556;5.080;2024-01-25T09:25:57;102239.41;;;6.23;100.00
36748;BME280;22716;51.556;5.080;2024-01-25T09:28:26;102234.28;;;6.26;100.00
36748;BME280;22716;51.556;5.080;2024-01-25T09:30:54;102235.25;;;6.30;100.00
36748;BME280;22716;51.556;5.080;2024-01-25T09:33:26;102238.00;;;6.34;100.00
36748;BME280;22716;51.556;5.080;2024-01-25T09:35:55;102251.16;;;6.39;100.00
36748;BME280;22716;51.556;5.080;2024-01-25T09:38:24;102251.28;;;6.43;100.00
36748;BME280;22716;51.556;5.080;2024-01-25T09:40:52;102253.16;;;6.49;100.00
36748;BME280;22716;51.556;5.080;2024-01-25T09:43:21;102241.75;;;6.44;100.00
36748;BME280;22716;51.556;5.080;2024-01-25T09:45:53;102252.41;;;6.51;100.00
36748;BME280;22716;51.556;5.080;2024-01-25T09:48:22;102241.19;;;6.54;100.00
36748;BME280;22716;51.556;5.080;2024-01-25T09:50:55;102244.78;;;6.59;100.00
36748;BME280;22716;51.556;5.080;2024-01-25T09:53:24;102240.56;;;6.64;100.00
36748;BME280;22716;51.556;5.080;2024-01-25T09:55:57;102237.16;;;6.65;100.00
36748;BME280;22716;51.556;5.080;2024-01-25T09:58:36;102242.53;;;6.71;100.00
36748;BME280;22716;51.556;5.080;2024-01-25T10:01:08;102230.41;;;6.73;100.00
36748;BME280;22716;51.556;5.080;2024-01-25T10:03:38;102231.50;;;6.81;100.00
36748;BME280;22716;51.556;5.080;2024-01-25T10:06:11;102225.44;;;6.82;100.00
36748;BME280;22716;51.556;5.080;2024-01-25T10:08:40;102218.63;;;6.87;100.00
36748;BME280;22716;51.556;5.080;2024-01-25T10:11:06;102214.22;;;6.85;100.00
36748;BME280;22716;51.556;5.080;2024-01-25T10:13:40;102211.75;;;6.89;100.00
36748;BME280;22716;51.556;5.080;2024-01-25T10:16:13;102218.63;;;6.87;100.00
36748;BME280;22716;51.556;5.080;2024-01-25T10:18:43;102211.75;;;6.89;100.00
36748;BME280;22716;51.556;5.080;2024-01-25T10:21:15;102203.16;;;6.93;100.00
36748;BME280;22716;51.556;5.080;2024-01-25T10:23:46;102208.38;;;6.93;100.00
36748;BME280;22716;51.556;5.080;2024-01-25T10:26:16;102198.09;;;6.98;100.00
36748;BME280;22716;51.556;5.080;2024-01-25T10:28:51;102199.97;;;7.05;100.00
36748;BME280;22716;51.556;5.080;2024-01-25T10:31:23;102197.44;;;7.06;100.00
36748;BME280;22716;51.556;5.080;2024-01-25T10:33:52;102177.34;;;7.02;100.00
36748;BME280;22716;51.556;5.080;2024-01-25T10:36:26;102196.69;;;7.10;100.00
36748;BME280;22716;51.556;5.080;2024-01-25T10:38:54;102160.78;;;7.00;100.00
36748;BME280;22716;51.556;5.080;2024-01-25T10:41:24;102196.03;;;7.20;100.00
36748;BME280;22716;51.556;5.080;2024-01-25T10:43:53;102201.38;;;7.25;100.00
36748;BME280;22716;51.556;5.080;2024-01-25T10:46:22;102196.19;;;7.25;100.00
36748;BME280;22716;51.556;5.080;2024-01-25T10:48:52;102208.41;;;7.29;100.00
36748;BME280;22716;51.556;5.080;2024-01-25T10:51:24;102206.66;;;7.28;100.00
36748;BME280;22716;51.556;5.080;2024-01-25T10:53:53;102205.06;;;7.34;100.00
36748;BME280;22716;51.556;5.080;2024-01-25T10:56:24;102191.22;;;7.37;100.00
36748;BME280;22716;51.556;5.080;2024-01-25T10:58:52;102180.09;;;7.43;100.00
36748;BME280;22716;51.556;5.080;2024-01-25T11:01:21;102166.25;;;7.47;100.00
36748;BME280;22716;51.556;5.080;2024-01-25T11:03:49;102176.75;;;7.48;100.00
36748;BME280;22716;51.556;5.080;2024-01-25T11:06:20;102163.69;;;7.48;100.00
36748;BME280;22716;51.556;5.080;2024-01-25T11:09:03;102168.09;;;7.51;100.00
36748;BME280;22716;51.556;5.080;2024-01-25T11:11:32;102157.88;;;7.60;100.00
36748;BME280;22716;51.556;5.080;2024-01-25T11:14:04;102142.31;;;7.64;100.00
36748;BME280;22716;51.556;5.080;2024-01-25T11:16:33;102151.16;;;7.71;100.00
36748;BME280;22716;51.556;5.080;2024-01-25T11:19:04;102141.63;;;7.71;100.00
36748;BME280;22716;51.556;5.080;2024-01-25T11:21:40;102137.28;;;7.72;100.00
36748;BME280;22716;51.556;5.080;2024-01-25T11:24:16;102132.97;;;7.74;100.00
36748;BME280;22716;51.556;5.080;2024-01-25T11:26:46;102133.03;;;7.77;100.00
36748;BME280;22716;51.556;5.080;2024-01-25T11:29:15;102132.31;;;7.84;100.00
36748;BME280;22716;51.556;5.080;2024-01-25T11:31:44;102133.25;;;7.86;100.00
36748;BME280;22716;51.556;5.080;2024-01-25T11:34:13;102132.44;;;7.90;100.00
36748;BME280;22716;51.556;5.080;2024-01-25T11:36:43;102142.91;;;7.92;100.00
36748;BME280;22716;51.556;5.080;2024-01-25T11:39:16;102142.03;;;7.89;100.00
36748;BME280;22716;51.556;5.080;2024-01-25T11:41:45;102136.09;;;7.98;100.00
36748;BME280;22716;51.556;5.080;2024-01-25T11:44:15;102130.91;;;8.00;100.00
36748;BME280;22716;51.556;5.080;2024-01-25T11:46:43;102137.06;;;8.03;100.00
36748;BME280;22716;51.556;5.080;2024-01-25T11:49:12;102133.69;;;8.09;100.00
36748;BME280;22716;51.556;5.080;2024-01-25T11:51:40;102130.25;;;8.10;100.00
36748;BME280;22716;51.556;5.080;2024-01-25T11:54:09;102117.28;;;8.14;100.00
36748;BME280;22716;51.556;5.080;2024-01-25T11:56:41;102121.78;;;8.21;100.00
36748;BME280;22716;51.556;5.080;2024-01-25T11:59:11;102109.50;;;8.16;100.00
36748;BME280;22716;51.556;5.080;2024-01-25T12:01:40;102099.09;;;8.19;100.00
36748;BME280;22716;51.556;5.080;2024-01-25T12:04:09;102070.34;;;8.17;100.00
36748;BME280;22716;51.556;5.080;2024-01-25T12:06:38;102081.81;;;8.25;100.00
36748;BME280;22716;51.556;5.080;2024-01-25T12:09:10;102064.53;;;8.30;100.00
36748;BME280;22716;51.556;5.080;2024-01-25T12:11:43;102075.13;;;8.38;100.00
36748;BME280;22716;51.556;5.080;2024-01-25T12:14:11;102071.72;;;8.42;100.00
36748;BME280;22716;51.556;5.080;2024-01-25T12:16:40;102075.19;;;8.42;100.00
36748;BME280;22716;51.556;5.080;2024-01-25T12:19:08;102070.84;;;8.43;100.00
36748;BME280;22716;51.556;5.080;2024-01-25T12:21:37;102061.28;;;8.43;100.00
36748;BME280;22716;51.556;5.080;2024-01-25T12:24:07;102050.88;;;8.47;100.00
36748;BME280;22716;51.556;5.080;2024-01-25T12:26:36;102059.59;;;8.47;100.00
36748;BME280;22716;51.556;5.080;2024-01-25T12:29:08;102063.16;;;8.52;100.00
36748;BME280;22716;51.556;5.080;2024-01-25T12:31:36;102059.66;;;8.50;100.00
36748;BME280;22716;51.556;5.080;2024-01-25T12:34:13;102057.00;;;8.49;100.00
36748;BME280;22716;51.556;5.080;2024-01-25T12:36:42;102058.88;;;8.56;100.00
36748;BME280;22716;51.556;5.080;2024-01-25T12:39:11;102044.06;;;8.55;100.00
36748;BME280;22716;51.556;5.080;2024-01-25T12:41:40;102048.44;;;8.56;100.00
36748;BME280;22716;51.556;5.080;2024-01-25T12:44:11;102043.25;;;8.59;100.00
36748;BME280;22716;51.556;5.080;2024-01-25T12:46:40;102036.28;;;8.58;100.00
36748;BME280;22716;51.556;5.080;2024-01-25T12:49:09;102031.03;;;8.56;100.00
36748;BME280;22716;51.556;5.080;2024-01-25T12:51:37;102037.09;;;8.55;100.00
36748;BME280;22716;51.556;5.080;2024-01-25T12:54:07;102037.19;;;8.60;100.00
36748;BME280;22716;51.556;5.080;2024-01-25T12:56:35;102038.94;;;8.61;100.00
36748;BME280;22716;51.556;5.080;2024-01-25T12:59:04;102036.28;;;8.58;100.00
36748;BME280;22716;51.556;5.080;2024-01-25T13:01:37;102024.97;;;8.59;100.00